Time,TemperatureF,DewpointF,PressureIn,WindDirection,WindDirectionDegrees,WindSpeedMPH,WindSpeedGustMPH,Humidity,HourlyPrecipIn,Conditions,Clouds,dailyrainin,SoftwareType,DateUTC
2012-09-15 06:20:00,33.1,29.1,30.21,South,180,0.0,0.0,85,0.00,,---,0.00,VWS V14.01,2012-09-15 12:20:00,
2012-09-15 06:33:00,32.8,28.8,30.21,South,190,0.0,0.0,85,0.00,,---,0.00,VWS V14.01,2012-09-15 12:33:00,
2012-09-15 06:38:00,32.9,29.2,30.21,South,190,0.0,0.0,86,0.00,,---,0.00,VWS V14.01,2012-09-15 12:38:00,
2012-09-15 06:43:00,32.8,29.1,30.21,South,190,0.0,0.0,86,0.00,,---,0.00,VWS V14.01,2012-09-15 12:43:00,
2012-09-15 06:46:00,32.8,29.1,30.21,South,190,0.0,0.0,86,0.00,,---,0.00,VWS V14.01,2012-09-15 12:46:00,
2012-09-15 06:51:00,32.7,29.0,30.21,South,190,0.0,0.0,86,0.00,,---,0.00,VWS V14.01,2012-09-15 12:51:00,
2012-09-15 06:56:00,32.8,29.1,30.21,South,190,0.0,0.0,86,0.00,,---,0.00,VWS V14.01,2012-09-15 12:56:00,
2012-09-15 07:01:00,32.9,29.2,30.21,South,190,0.0,0.0,86,0.00,,---,0.00,VWS V14.01,2012-09-15 13:01:00,
2012-09-15 07:06:00,32.8,29.1,30.28,South,190,0.0,0.0,86,0.00,,---,0.00,VWS V14.01,2012-09-15 13:06:00,
2012-09-15 07:11:00,32.9,29.2,30.28,South,190,0.0,0.0,86,0.00,,---,0.00,VWS V14.01,2012-09-15 13:11:00,
2012-09-15 07:16:00,33.0,29.3,30.28,South,190,0.0,0.0,86,0.00,,---,0.00,VWS V14.01,2012-09-15 13:16:00,
2012-09-15 07:21:00,33.3,29.6,30.28,South,190,0.0,0.0,86,0.00,,---,0.00,VWS V14.01,2012-09-15 13:21:00,
2012-09-15 07:26:00,33.8,30.4,30.26,South,190,0.0,0.0,87,0.00,,---,0.00,VWS V14.01,2012-09-15 13:26:00,
2012-09-15 07:31:00,34.3,30.6,30.27,South,190,0.0,0.0,86,0.00,,---,0.00,VWS V14.01,2012-09-15 13:31:00,
2012-09-15 07:36:00,34.7,31.0,30.27,South,190,0.0,0.0,86,0.00,,---,0.00,VWS V14.01,2012-09-15 13:36:00,
2012-09-15 07:41:00,35.4,31.6,30.26,South,190,0.0,0.0,86,0.00,,---,0.00,VWS V14.01,2012-09-15 13:41:00,
2012-09-15 07:46:00,36.1,32.0,30.25,South,190,0.0,0.0,85,0.00,,---,0.00,VWS V14.01,2012-09-15 13:46:00,
2012-09-15 07:51:00,36.5,32.4,30.25,South,190,0.0,0.0,85,0.00,,---,0.00,VWS V14.01,2012-09-15 13:51:00,
2012-09-15 07:56:00,36.8,32.4,30.25,South,190,0.0,0.0,84,0.00,,---,0.00,VWS V14.01,2012-09-15 13:56:00,
2012-09-15 08:01:00,37.3,32.9,30.24,South,190,0.0,0.0,84,0.00,,---,0.00,VWS V14.01,2012-09-15 14:01:00,
2012-09-15 08:06:00,37.9,33.2,30.27,South,190,0.0,0.0,83,0.00,,---,0.00,VWS V14.01,2012-09-15 14:06:00,
2012-09-15 08:11:00,38.8,34.1,30.27,South,190,0.0,0.0,83,0.00,,---,0.00,VWS V14.01,2012-09-15 14:11:00,
2012-09-15 08:16:00,39.9,34.5,30.26,South,190,0.0,0.0,81,0.00,,---,0.00,VWS V14.01,2012-09-15 14:16:00,
2012-09-15 08:21:00,40.8,34.8,30.26,South,190,0.0,0.0,79,0.00,,---,0.00,VWS V14.01,2012-09-15 14:21:00,
2012-09-15 08:26:00,41.7,35.4,30.25,South,190,0.0,0.0,78,0.00,,---,0.00,VWS V14.01,2012-09-15 14:26:00,
2012-09-15 08:31:00,42.6,35.6,30.24,South,190,0.0,0.0,76,0.00,,---,0.00,VWS V14.01,2012-09-15 14:31:00,
2012-09-15 08:36:00,43.9,35.8,30.22,South,190,0.0,0.0,73,0.00,,---,0.00,VWS V14.01,2012-09-15 14:36:00,
2012-09-15 08:42:00,45.1,36.3,30.22,South,190,0.0,0.0,71,0.00,,---,0.00,VWS V14.01,2012-09-15 14:42:00,
2012-09-15 08:47:00,46.1,36.1,30.21,South,190,0.0,0.0,68,0.00,,---,0.00,VWS V14.01,2012-09-15 14:47:00,
2012-09-15 08:52:00,47.4,36.2,30.21,South,190,0.0,0.0,65,0.00,,---,0.00,VWS V14.01,2012-09-15 14:52:00,
2012-09-15 08:57:00,48.3,36.3,30.19,South,190,0.0,0.0,63,0.00,,---,0.00,VWS V14.01,2012-09-15 14:57:00,
2012-09-15 09:02:00,49.2,35.9,30.19,South,190,0.0,0.0,60,0.00,,---,0.00,VWS V14.01,2012-09-15 15:02:00,
2012-09-15 09:07:00,50.1,35.9,30.22,South,190,0.0,0.0,58,0.00,,---,0.00,VWS V14.01,2012-09-15 15:07:00,
2012-09-15 09:12:00,51.3,36.6,30.20,South,190,0.0,0.0,57,0.00,,---,0.00,VWS V14.01,2012-09-15 15:12:00,
2012-09-15 09:17:00,52.9,36.2,30.19,South,190,0.0,0.0,53,0.00,,---,0.00,VWS V14.01,2012-09-15 15:17:00,
2012-09-15 09:22:00,54.4,36.2,30.19,South,190,0.0,1.0,50,0.00,,---,0.00,VWS V14.01,2012-09-15 15:22:00,
2012-09-15 09:27:00,55.5,36.2,30.17,South,190,0.0,1.0,48,0.00,,---,0.00,VWS V14.01,2012-09-15 15:27:00,
2012-09-15 09:32:00,55.9,34.9,30.18,South,190,0.0,2.0,45,0.00,,---,0.00,VWS V14.01,2012-09-15 15:32:00,
2012-09-15 09:37:00,56.1,33.9,30.17,South,190,0.0,2.0,43,0.00,,---,0.00,VWS V14.01,2012-09-15 15:37:00,
2012-09-15 09:42:00,56.5,34.9,30.17,South,190,0.0,1.0,44,0.00,,---,0.00,VWS V14.01,2012-09-15 15:42:00,
2012-09-15 09:47:00,57.2,33.7,30.16,South,190,0.0,1.0,41,0.00,,---,0.00,VWS V14.01,2012-09-15 15:47:00,
2012-09-15 09:52:00,57.0,32.9,30.16,South,190,0.0,5.0,40,0.00,,---,0.00,VWS V14.01,2012-09-15 15:52:00,
2012-09-15 09:57:00,56.8,33.4,30.16,South,190,0.0,2.0,41,0.00,,---,0.00,VWS V14.01,2012-09-15 15:57:00,
2012-09-15 10:02:00,57.1,34.2,30.16,South,190,0.0,2.0,42,0.00,,---,0.00,VWS V14.01,2012-09-15 16:02:00,
2012-09-15 10:07:00,57.4,33.3,30.17,South,190,0.0,3.0,40,0.00,,---,0.00,VWS V14.01,2012-09-15 16:07:00,
2012-09-15 10:12:00,57.8,34.3,30.15,South,190,0.0,4.0,41,0.00,,---,0.00,VWS V14.01,2012-09-15 16:12:00,
2012-09-15 10:17:00,58.6,34.4,30.15,South,190,0.0,4.0,40,0.00,,---,0.00,VWS V14.01,2012-09-15 16:17:00,
2012-09-15 10:22:00,59.0,34.1,30.15,South,190,0.0,2.0,39,0.00,,---,0.00,VWS V14.01,2012-09-15 16:22:00,
2012-09-15 10:27:00,59.1,33.5,30.15,SSW,196,2.0,5.0,38,0.00,,---,0.00,VWS V14.01,2012-09-15 16:27:00,
2012-09-15 10:32:00,59.4,34.5,30.15,SSW,196,0.0,4.0,39,0.00,,---,0.00,VWS V14.01,2012-09-15 16:32:00,
2012-09-15 10:37:00,60.0,35.0,30.14,SSW,196,0.0,1.0,39,0.00,,---,0.00,VWS V14.01,2012-09-15 16:37:00,
2012-09-15 10:42:00,60.8,35.7,30.14,SSW,196,1.0,5.0,39,0.00,,---,0.00,VWS V14.01,2012-09-15 16:42:00,
2012-09-15 10:47:00,61.1,35.3,30.14,SSW,196,5.0,6.0,38,0.00,,---,0.00,VWS V14.01,2012-09-15 16:47:00,
2012-09-15 10:52:00,60.9,35.8,30.13,SSW,196,0.0,2.0,39,0.00,,---,0.00,VWS V14.01,2012-09-15 16:52:00,
2012-09-15 10:57:00,61.6,36.4,30.13,SSW,196,0.0,1.0,39,0.00,,---,0.00,VWS V14.01,2012-09-15 16:57:00,
2012-09-15 11:02:00,62.6,36.0,30.11,SSW,196,0.0,5.0,37,0.00,,---,0.00,VWS V14.01,2012-09-15 17:02:00,
2012-09-15 11:07:00,63.6,36.9,30.10,SSW,196,0.0,1.0,37,0.00,,---,0.00,VWS V14.01,2012-09-15 17:07:00,
2012-09-15 11:12:00,64.3,36.1,30.11,SSW,196,0.0,2.0,35,0.00,,---,0.00,VWS V14.01,2012-09-15 17:12:00,
2012-09-15 11:17:00,64.7,35.7,30.11,SSW,196,0.0,5.0,34,0.00,,---,0.00,VWS V14.01,2012-09-15 17:17:00,
2012-09-15 11:23:00,64.7,35.0,30.11,SSW,202,0.0,6.0,33,0.00,,---,0.00,VWS V14.01,2012-09-15 17:23:00,
2012-09-15 11:28:00,65.2,35.4,30.10,SSW,202,0.0,5.0,33,0.00,,---,0.00,VWS V14.01,2012-09-15 17:28:00,
2012-09-15 11:33:00,65.9,33.6,30.09,SSW,202,2.0,6.0,30,0.00,,---,0.00,VWS V14.01,2012-09-15 17:33:00,
2012-09-15 11:38:00,66.3,32.2,30.09,SSW,204,4.0,4.0,28,0.00,,---,0.00,VWS V14.01,2012-09-15 17:38:00,
2012-09-15 11:43:00,67.0,32.0,30.09,SSW,204,1.0,5.0,27,0.00,,---,0.00,VWS V14.01,2012-09-15 17:43:00,
2012-09-15 11:48:00,67.5,30.5,30.07,SSW,204,0.0,4.0,25,0.00,,---,0.00,VWS V14.01,2012-09-15 17:48:00,
2012-09-15 11:53:00,68.2,33.0,30.07,SSW,205,2.0,6.0,27,0.00,,---,0.00,VWS V14.01,2012-09-15 17:53:00,
2012-09-15 11:58:00,68.6,30.4,30.07,West,262,2.0,9.0,24,0.00,,---,0.00,VWS V14.01,2012-09-15 17:58:00,
2012-09-15 12:03:00,68.7,31.5,30.07,West,263,0.0,8.0,25,0.00,,---,0.00,VWS V14.01,2012-09-15 18:03:00,
2012-09-15 12:08:00,69.4,30.0,30.07,West,266,0.0,5.0,23,0.00,,---,0.00,VWS V14.01,2012-09-15 18:08:00,
2012-09-15 12:13:00,70.0,29.4,30.07,West,277,0.0,11.0,22,0.00,,---,0.00,VWS V14.01,2012-09-15 18:13:00,
2012-09-15 12:18:00,70.1,30.6,30.07,West,276,2.0,6.0,23,0.00,,---,0.00,VWS V14.01,2012-09-15 18:18:00,
2012-09-15 12:23:00,70.7,30.0,30.05,NE,35,4.0,9.0,22,0.00,,---,0.00,VWS V14.01,2012-09-15 18:23:00,
2012-09-15 12:28:00,71.2,29.3,30.05,NE,56,8.0,11.0,21,0.00,,---,0.00,VWS V14.01,2012-09-15 18:28:00,
2012-09-15 12:33:00,71.3,30.5,30.05,NNW,327,0.0,10.0,22,0.00,,---,0.00,VWS V14.01,2012-09-15 18:33:00,
2012-09-15 12:38:00,71.5,30.7,30.04,NNW,328,4.0,5.0,22,0.00,,---,0.00,VWS V14.01,2012-09-15 18:38:00,
2012-09-15 12:44:00,71.5,30.7,30.04,NNW,328,0.0,1.0,22,0.00,,---,0.00,VWS V14.01,2012-09-15 18:44:00,
2012-09-15 12:49:00,71.7,30.9,30.04,WNW,290,1.0,2.0,22,0.00,,---,0.00,VWS V14.01,2012-09-15 18:49:00,
2012-09-15 12:54:00,71.3,31.6,30.04,WNW,284,0.0,4.0,23,0.00,,---,0.00,VWS V14.01,2012-09-15 18:54:00,
2012-09-15 12:59:00,71.3,29.4,30.04,WNW,294,0.0,7.0,21,0.00,,---,0.00,VWS V14.01,2012-09-15 18:59:00,
2012-09-15 13:04:00,71.5,30.7,30.03,WNW,294,0.0,6.0,22,0.00,,---,0.00,VWS V14.01,2012-09-15 19:04:00,
2012-09-15 13:09:00,71.7,29.7,30.03,WNW,294,1.0,2.0,21,0.00,,---,0.00,VWS V14.01,2012-09-15 19:09:00,
2012-09-15 13:14:00,71.7,30.9,30.03,WNW,298,0.0,1.0,22,0.00,,---,0.00,VWS V14.01,2012-09-15 19:14:00,
2012-09-15 13:19:00,72.5,30.4,30.03,WNW,298,1.0,4.0,21,0.00,,---,0.00,VWS V14.01,2012-09-15 19:19:00,
2012-09-15 13:24:00,72.6,29.3,30.03,NW,313,0.0,8.0,20,0.00,,---,0.00,VWS V14.01,2012-09-15 19:24:00,
2012-09-15 13:29:00,71.9,29.9,30.03,NW,313,5.0,8.0,21,0.00,,---,0.00,VWS V14.01,2012-09-15 19:29:00,
2012-09-15 13:34:00,71.3,29.4,30.04,NW,313,4.0,5.0,21,0.00,,---,0.00,VWS V14.01,2012-09-15 19:34:00,
2012-09-15 13:39:00,71.7,30.9,30.02,NW,313,6.0,8.0,22,0.00,,---,0.00,VWS V14.01,2012-09-15 19:39:00,
2012-09-15 13:44:00,72.7,29.4,30.02,NW,313,0.0,3.0,20,0.00,,---,0.00,VWS V14.01,2012-09-15 19:44:00,
2012-09-15 13:49:00,73.9,31.5,30.00,NW,313,0.0,5.0,21,0.00,,---,0.00,VWS V14.01,2012-09-15 19:49:00,
2012-09-15 13:54:00,73.7,30.2,30.00,WNW,292,8.0,8.0,20,0.00,,---,0.00,VWS V14.01,2012-09-15 19:54:00,
2012-09-15 13:59:00,73.2,29.8,30.01,WNW,297,7.0,7.0,20,0.00,,---,0.00,VWS V14.01,2012-09-15 19:59:00,
2012-09-15 14:04:00,72.9,29.5,30.02,WNW,297,0.0,1.0,20,0.00,,---,0.00,VWS V14.01,2012-09-15 20:04:00,
2012-09-15 14:09:00,73.4,29.9,30.02,WNW,297,5.0,5.0,20,0.00,,---,0.00,VWS V14.01,2012-09-15 20:09:00,
2012-09-15 14:14:00,74.0,30.4,30.00,WNW,302,0.0,1.0,20,0.00,,---,0.00,VWS V14.01,2012-09-15 20:14:00,
2012-09-15 14:19:00,74.0,29.2,30.00,NW,316,1.0,8.0,19,0.00,,---,0.00,VWS V14.01,2012-09-15 20:19:00,
2012-09-15 14:25:00,74.0,30.4,30.00,NW,316,2.0,2.0,20,0.00,,---,0.00,VWS V14.01,2012-09-15 20:25:00,
2012-09-15 14:30:00,73.9,27.8,30.00,NNW,329,0.0,6.0,18,0.00,,---,0.00,VWS V14.01,2012-09-15 20:30:00,
2012-09-15 14:35:00,73.7,27.6,30.00,NNW,329,0.0,2.0,18,0.00,,---,0.00,VWS V14.01,2012-09-15 20:35:00,
2012-09-15 14:40:00,74.1,30.5,29.99,NNW,329,0.0,1.0,20,0.00,,---,0.00,VWS V14.01,2012-09-15 20:40:00,
2012-09-15 14:45:00,74.1,27.9,30.00,NNW,329,0.0,6.0,18,0.00,,---,0.00,VWS V14.01,2012-09-15 20:45:00,
2012-09-15 14:50:00,74.0,26.5,29.99,NNW,329,1.0,4.0,17,0.00,,---,0.00,VWS V14.01,2012-09-15 20:50:00,
2012-09-15 14:55:00,74.5,29.6,29.98,NNW,329,0.0,1.0,19,0.00,,---,0.00,VWS V14.01,2012-09-15 20:55:00,
2012-09-15 15:00:00,75.6,27.8,29.97,NNW,329,1.0,4.0,17,0.00,,---,0.00,VWS V14.01,2012-09-15 21:00:00,
2012-09-15 15:05:00,75.4,29.0,29.97,NNW,329,0.0,1.0,18,0.00,,---,0.00,VWS V14.01,2012-09-15 21:05:00,
2012-09-15 15:10:00,75.6,29.1,29.96,NNW,329,6.0,7.0,18,0.00,,---,0.00,VWS V14.01,2012-09-15 21:10:00,
2012-09-15 15:15:00,74.5,28.2,29.96,NNW,329,6.0,8.0,18,0.00,,---,0.00,VWS V14.01,2012-09-15 21:15:00,
2012-09-15 15:20:00,74.2,28.0,29.98,NNW,329,3.0,5.0,18,0.00,,---,0.00,VWS V14.01,2012-09-15 21:20:00,
2012-09-15 15:25:00,74.3,29.4,29.98,NNW,329,2.0,8.0,19,0.00,,---,0.00,VWS V14.01,2012-09-15 21:25:00,
2012-09-15 15:30:00,74.6,29.7,29.97,NNW,329,0.0,6.0,19,0.00,,---,0.00,VWS V14.01,2012-09-15 21:30:00,
2012-09-15 15:35:00,75.4,29.0,29.95,NW,321,4.0,9.0,18,0.00,,---,0.00,VWS V14.01,2012-09-15 21:35:00,
2012-09-15 15:40:00,75.0,28.7,29.95,WNW,300,5.0,9.0,18,0.00,,---,0.00,VWS V14.01,2012-09-15 21:40:00,
2012-09-15 15:46:00,75.1,28.7,29.95,WNW,299,2.0,6.0,18,0.00,,---,0.00,VWS V14.01,2012-09-15 21:46:00,
2012-09-15 15:51:00,75.5,29.1,29.94,WNW,300,1.0,6.0,18,0.00,,---,0.00,VWS V14.01,2012-09-15 21:51:00,
2012-09-15 15:59:00,75.4,29.0,29.94,WNW,299,0.0,0.0,18,0.00,,---,0.00,VWS V14.01,2012-09-15 21:59:00,
2012-09-15 16:04:00,76.1,29.6,29.96,WNW,300,4.0,6.0,18,0.00,,---,0.00,VWS V14.01,2012-09-15 22:04:00,
2012-09-15 16:09:00,75.9,29.4,29.95,West,279,0.0,2.0,18,0.00,,---,0.00,VWS V14.01,2012-09-15 22:09:00,
2012-09-15 16:14:00,75.6,29.1,29.95,West,279,5.0,5.0,18,0.00,,---,0.00,VWS V14.01,2012-09-15 22:14:00,
2012-09-15 16:19:00,75.3,28.9,29.97,West,279,0.0,0.0,18,0.00,,---,0.00,VWS V14.01,2012-09-15 22:19:00,
2012-09-15 16:24:00,76.0,29.5,29.95,West,279,6.0,7.0,18,0.00,,---,0.00,VWS V14.01,2012-09-15 22:24:00,
2012-09-15 16:29:00,76.3,29.7,29.94,West,279,1.0,2.0,18,0.00,,---,0.00,VWS V14.01,2012-09-15 22:29:00,
2012-09-15 16:34:00,75.8,29.3,29.94,West,280,0.0,3.0,18,0.00,,---,0.00,VWS V14.01,2012-09-15 22:34:00,
2012-09-15 16:39:00,75.1,28.7,29.95,West,279,1.0,1.0,18,0.00,,---,0.00,VWS V14.01,2012-09-15 22:39:00,
2012-09-15 16:44:00,74.6,28.3,29.96,West,279,0.0,0.0,18,0.00,,---,0.00,VWS V14.01,2012-09-15 22:44:00,
2012-09-15 16:49:00,74.9,28.6,29.95,West,279,4.0,4.0,18,0.00,,---,0.00,VWS V14.01,2012-09-15 22:49:00,
2012-09-15 16:54:00,75.2,27.4,29.96,West,279,0.0,1.0,17,0.00,,---,0.00,VWS V14.01,2012-09-15 22:54:00,
2012-09-15 16:59:00,76.0,28.1,29.94,West,279,0.0,1.0,17,0.00,,---,0.00,VWS V14.01,2012-09-15 22:59:00,
2012-09-15 17:04:00,76.5,29.9,29.93,West,279,2.0,2.0,18,0.00,,---,0.00,VWS V14.01,2012-09-15 23:04:00,
2012-09-15 17:09:00,76.7,30.0,29.93,West,279,0.0,1.0,18,0.00,,---,0.00,VWS V14.01,2012-09-15 23:09:00,
2012-09-15 17:14:00,76.6,30.0,29.93,West,279,0.0,0.0,18,0.00,,---,0.00,VWS V14.01,2012-09-15 23:14:00,
2012-09-15 17:19:00,76.2,29.6,29.95,West,279,0.0,2.0,18,0.00,,---,0.00,VWS V14.01,2012-09-15 23:19:00,
2012-09-15 17:24:00,75.8,29.3,29.95,West,280,5.0,6.0,18,0.00,,---,0.00,VWS V14.01,2012-09-15 23:24:00,
2012-09-15 17:29:00,75.2,28.8,29.95,West,280,0.0,2.0,18,0.00,,---,0.00,VWS V14.01,2012-09-15 23:29:00,
2012-09-15 17:34:00,75.4,30.3,29.95,West,280,0.0,0.0,19,0.00,,---,0.00,VWS V14.01,2012-09-15 23:34:00,
2012-09-15 17:39:00,75.8,29.3,29.94,West,280,0.0,0.0,18,0.00,,---,0.00,VWS V14.01,2012-09-15 23:39:00,
2012-09-15 17:45:00,76.8,30.1,29.93,West,280,0.0,0.0,18,0.00,,---,0.00,VWS V14.01,2012-09-15 23:45:00,
2012-09-15 17:51:00,76.9,30.2,29.93,West,280,0.0,1.0,18,0.00,,---,0.00,VWS V14.01,2012-09-15 23:51:00,
2012-09-15 17:56:00,76.8,30.1,29.93,West,280,0.0,1.0,18,0.00,,---,0.00,VWS V14.01,2012-09-15 23:56:00,
2012-09-15 18:01:00,77.1,30.4,29.93,West,280,1.0,2.0,18,0.00,,---,0.00,VWS V14.01,2012-09-16 00:01:00,
2012-09-15 18:06:00,76.5,31.2,29.93,West,280,1.0,3.0,19,0.00,,---,0.00,VWS V14.01,2012-09-16 00:06:00,
2012-09-15 18:11:00,75.5,30.4,29.94,West,280,5.0,6.0,19,0.00,,---,0.00,VWS V14.01,2012-09-16 00:11:00,
2012-09-15 18:20:00,71.3,30.5,29.98,SW,232,6.0,8.0,22,0.00,,---,0.00,VWS V14.01,2012-09-16 00:20:00,
2012-09-15 18:25:00,69.9,30.5,30.00,SSW,206,4.0,10.0,23,0.00,,---,0.00,VWS V14.01,2012-09-16 00:25:00,
2012-09-15 18:30:00,69.3,31.0,30.00,SSW,206,7.0,9.0,24,0.00,,---,0.00,VWS V14.01,2012-09-16 00:30:00,
2012-09-15 18:35:00,68.8,30.6,30.00,SSW,206,0.0,7.0,24,0.00,,---,0.00,VWS V14.01,2012-09-16 00:35:00,
2012-09-15 18:40:00,68.4,30.2,30.02,SSW,207,0.0,9.0,24,0.00,,---,0.00,VWS V14.01,2012-09-16 00:40:00,
2012-09-15 18:45:00,67.6,29.6,30.02,SSW,207,3.0,8.0,24,0.00,,---,0.00,VWS V14.01,2012-09-16 00:45:00,
2012-09-15 18:50:00,66.9,30.0,30.02,SSW,206,1.0,8.0,25,0.00,,---,0.00,VWS V14.01,2012-09-16 00:50:00,
2012-09-15 18:55:00,66.3,29.5,30.03,SSW,207,1.0,4.0,25,0.00,,---,0.00,VWS V14.01,2012-09-16 00:55:00,
2012-09-15 19:00:00,65.6,29.8,30.03,SSW,206,1.0,1.0,26,0.00,,---,0.00,VWS V14.01,2012-09-16 01:00:00,
2012-09-15 19:06:00,64.9,29.2,30.00,SSW,206,0.0,7.0,26,0.00,,---,0.00,VWS V14.01,2012-09-16 01:06:00,
2012-09-15 19:11:00,64.4,29.7,30.00,SSW,206,0.0,1.0,27,0.00,,---,0.00,VWS V14.01,2012-09-16 01:11:00,
2012-09-15 19:16:00,63.9,30.2,30.00,SSW,207,0.0,1.0,28,0.00,,---,0.00,VWS V14.01,2012-09-16 01:16:00,
2012-09-15 19:21:00,63.3,29.7,30.02,SSW,207,0.0,1.0,28,0.00,,---,0.00,VWS V14.01,2012-09-16 01:21:00,
2012-09-15 19:26:00,62.6,29.9,30.02,SSW,207,0.0,1.0,29,0.00,,---,0.00,VWS V14.01,2012-09-16 01:26:00,
2012-09-15 19:31:00,62.0,30.2,30.02,SSW,207,0.0,5.0,30,0.00,,---,0.00,VWS V14.01,2012-09-16 01:31:00,
2012-09-15 19:36:00,61.4,29.7,30.04,SSW,207,1.0,1.0,30,0.00,,---,0.00,VWS V14.01,2012-09-16 01:36:00,
2012-09-15 19:41:00,60.8,29.2,30.05,SSW,207,0.0,2.0,30,0.00,,---,0.00,VWS V14.01,2012-09-16 01:41:00,
2012-09-15 19:46:00,60.5,28.9,30.05,SSW,206,1.0,4.0,30,0.00,,---,0.00,VWS V14.01,2012-09-16 01:46:00,
2012-09-15 19:51:00,60.2,29.5,30.05,SSW,207,0.0,2.0,31,0.00,,---,0.00,VWS V14.01,2012-09-16 01:51:00,
2012-09-15 20:01:00,59.6,29.0,30.05,SSW,207,0.0,1.0,31,0.00,,---,0.00,VWS V14.01,2012-09-16 02:01:00,
2012-09-15 20:06:00,59.5,28.9,29.96,SSW,206,0.0,1.0,31,0.00,,---,0.00,VWS V14.01,2012-09-16 02:06:00,
2012-09-15 20:11:00,59.4,28.0,29.98,SSW,207,0.0,1.0,30,0.00,,---,0.00,VWS V14.01,2012-09-16 02:11:00,
2012-09-15 20:16:00,59.4,28.8,29.98,SSW,206,0.0,1.0,31,0.00,,---,0.00,VWS V14.01,2012-09-16 02:16:00,
2012-09-15 20:21:00,59.1,28.5,29.99,SSW,206,0.0,1.0,31,0.00,,---,0.00,VWS V14.01,2012-09-16 02:21:00,
2012-09-15 20:26:00,59.0,27.6,30.00,SSW,207,0.0,1.0,30,0.00,,---,0.00,VWS V14.01,2012-09-16 02:26:00,
2012-09-15 20:31:00,59.3,27.1,30.00,SSW,207,2.0,2.0,29,0.00,,---,0.00,VWS V14.01,2012-09-16 02:31:00,
2012-09-15 20:36:00,59.7,27.4,29.99,SSW,207,0.0,2.0,29,0.00,,---,0.00,VWS V14.01,2012-09-16 02:36:00,
2012-09-15 20:41:00,59.6,29.0,29.98,SSW,206,0.0,2.0,31,0.00,,---,0.00,VWS V14.01,2012-09-16 02:41:00,
2012-09-15 20:46:00,58.7,29.7,30.00,SSW,207,0.0,5.0,33,0.00,,---,0.00,VWS V14.01,2012-09-16 02:46:00,
2012-09-15 20:51:00,57.8,28.9,30.00,SSW,207,0.0,0.0,33,0.00,,---,0.00,VWS V14.01,2012-09-16 02:51:00,
2012-09-15 20:56:00,57.3,27.7,30.02,SSW,206,0.0,4.0,32,0.00,,---,0.00,VWS V14.01,2012-09-16 02:56:00,
2012-09-15 21:01:00,57.2,29.1,30.02,SSW,206,0.0,0.0,34,0.00,,---,0.00,VWS V14.01,2012-09-16 03:01:00,
2012-09-15 21:06:00,56.8,28.8,29.96,SSW,206,0.0,0.0,34,0.00,,---,0.00,VWS V14.01,2012-09-16 03:06:00,
2012-09-15 21:11:00,56.4,29.8,29.96,SSW,206,0.0,0.0,36,0.00,,---,0.00,VWS V14.01,2012-09-16 03:11:00,
2012-09-15 21:16:00,55.9,30.0,29.98,SSW,207,0.0,0.0,37,0.00,,---,0.00,VWS V14.01,2012-09-16 03:16:00,
2012-09-15 21:21:00,55.5,29.7,29.98,SSW,206,0.0,0.0,37,0.00,,---,0.00,VWS V14.01,2012-09-16 03:21:00,